createdAt,value
2018-07-28T00:00:51.992Z,20.23
2018-07-28T00:03:50.085Z,21.77
2018-07-28T00:06:49.185Z,18.13
2018-07-28T00:09:47.216Z,21.43
2018-07-28T00:12:45.387Z,22.03
2018-07-28T00:15:43.552Z,24.00
2018-07-28T00:18:41.968Z,20.40
2018-07-28T00:21:41.324Z,23.00
2018-07-28T00:24:39.136Z,22.10
2018-07-28T00:27:38.536Z,20.90
2018-07-28T00:30:37.310Z,19.93
2018-07-28T00:33:35.902Z,21.33
2018-07-28T00:36:35.234Z,20.33
2018-07-28T00:39:33.157Z,22.33
2018-07-28T00:42:31.613Z,22.20
2018-07-28T00:45:30.556Z,25.97
2018-07-28T00:48:28.602Z,34.00
2018-07-28T00:51:27.076Z,24.87
2018-07-28T00:54:26.300Z,22.60
2018-07-28T00:57:24.138Z,22.30
2018-07-28T01:00:23.524Z,24.97
2018-07-28T01:03:22.193Z,22.23
2018-07-28T01:06:20.776Z,23.60
2018-07-28T01:09:22.364Z,21.23
2018-07-28T01:12:21.513Z,23.50
2018-07-28T01:15:21.711Z,22.70
2018-07-28T01:18:19.964Z,23.33
2018-07-28T01:21:18.312Z,28.17
2018-07-28T01:24:16.676Z,24.10
2018-07-28T01:27:14.872Z,26.00
2018-07-28T01:30:12.973Z,24.10
2018-07-28T01:33:12.527Z,25.03
2018-07-28T01:36:10.985Z,25.73
2018-07-28T01:39:10.176Z,25.67
2018-07-28T01:42:08.364Z,24.37
2018-07-28T01:45:06.541Z,26.97
2018-07-28T01:48:05.244Z,22.13
2018-07-28T01:51:03.891Z,21.73
2018-07-28T01:54:02.041Z,21.63
2018-07-28T01:57:00.453Z,26.83
2018-07-28T01:59:58.885Z,19.83
2018-07-28T02:02:58.352Z,20.33
2018-07-28T02:05:56.529Z,21.33
2018-07-28T02:08:54.633Z,23.63
2018-07-28T02:11:53.892Z,20.90
2018-07-28T02:14:52.341Z,23.40
2018-07-28T02:17:50.612Z,29.50
2018-07-28T02:20:48.860Z,27.97
2018-07-28T02:23:47.156Z,27.03
2018-07-28T02:26:47.511Z,30.60
2018-07-28T02:29:48.707Z,28.67
2018-07-28T02:32:46.953Z,29.07
2018-07-28T02:35:45.221Z,31.37
2018-07-28T02:38:43.188Z,29.50
2018-07-28T02:41:41.451Z,28.63
2018-07-28T02:44:39.605Z,26.90
2018-07-28T02:47:38.628Z,36.93
2018-07-28T02:50:38.218Z,36.77
2018-07-28T02:53:36.433Z,45.17
2018-07-28T02:56:35.891Z,43.43
2018-07-28T02:59:33.625Z,36.77
2018-07-28T03:02:32.000Z,31.85
2018-07-28T03:05:29.765Z,28.20
2018-07-28T03:08:30.953Z,17.33
2018-07-28T03:11:29.168Z,19.63
2018-07-28T03:14:27.367Z,19.43
2018-07-28T03:17:26.135Z,24.00
2018-07-28T03:20:24.063Z,25.80
2018-07-28T03:23:22.129Z,28.80
2018-07-28T03:26:21.245Z,33.80
2018-07-28T03:29:19.068Z,26.33
2018-07-28T03:32:17.780Z,27.37
2018-07-28T03:35:16.947Z,31.70
2018-07-28T03:38:14.603Z,33.00
2018-07-28T03:41:13.600Z,36.47
2018-07-28T03:44:11.713Z,52.27
2018-07-28T03:47:10.830Z,41.87
2018-07-28T03:50:10.304Z,40.33
2018-07-28T03:53:09.258Z,43.17
2018-07-28T03:56:10.069Z,41.53
2018-07-28T03:59:07.996Z,62.83
2018-07-28T04:02:06.155Z,54.60
2018-07-28T04:05:04.601Z,53.27
2018-07-28T04:08:03.084Z,39.33
2018-07-28T04:11:01.232Z,41.50
2018-07-28T04:14:00.451Z,49.27
2018-07-28T04:16:59.556Z,48.57
2018-07-28T04:19:59.339Z,46.67
2018-07-28T04:22:59.702Z,46.93
2018-07-28T04:25:57.704Z,48.70
2018-07-28T04:28:56.150Z,42.70
2018-07-28T04:31:55.256Z,50.57
2018-07-28T04:34:53.904Z,49.57
2018-07-28T04:37:52.313Z,43.00
2018-07-28T04:40:51.450Z,39.93
2018-07-28T04:43:49.476Z,44.40
2018-07-28T04:46:48.375Z,43.63
2018-07-28T04:49:46.964Z,40.17
2018-07-28T04:52:45.329Z,41.83
2018-07-28T04:55:43.308Z,37.13
2018-07-28T04:58:42.174Z,36.53
2018-07-28T05:01:40.528Z,34.33
2018-07-28T05:04:38.404Z,37.17
2018-07-28T05:07:37.244Z,37.77
2018-07-28T05:10:37.351Z,39.07
2018-07-28T05:13:36.001Z,35.30
2018-07-28T05:16:34.135Z,34.60
2018-07-28T05:19:32.302Z,33.13
2018-07-28T05:22:30.744Z,32.80
2018-07-28T05:25:29.054Z,36.30
2018-07-28T05:28:27.445Z,35.40
2018-07-28T05:31:28.910Z,36.17
2018-07-28T05:34:27.304Z,32.73
2018-07-28T05:37:27.599Z,31.67
2018-07-28T05:40:25.553Z,34.50
2018-07-28T05:43:23.560Z,33.13
2018-07-28T05:46:21.744Z,33.87
2018-07-28T05:49:20.176Z,32.17
2018-07-28T05:52:18.629Z,33.87
2018-07-28T05:55:17.319Z,28.77
2018-07-28T05:58:15.780Z,29.80
2018-07-28T06:01:15.390Z,30.20
2018-07-28T06:04:13.519Z,28.90
2018-07-28T06:07:11.873Z,28.87
2018-07-28T06:10:11.411Z,28.60
2018-07-28T06:13:09.989Z,24.90
2018-07-28T06:16:08.120Z,23.17
2018-07-28T06:19:08.454Z,23.70
2018-07-28T06:22:06.854Z,17.27
2018-07-28T06:25:05.397Z,17.37
2018-07-28T06:28:03.534Z,17.97
2018-07-28T06:31:05.909Z,19.40
2018-07-28T06:34:03.988Z,18.07
2018-07-28T06:37:02.095Z,18.10
2018-07-28T06:40:00.233Z,16.43
2018-07-28T06:42:58.385Z,19.83
2018-07-28T06:45:56.568Z,15.17
2018-07-28T06:48:56.427Z,15.80
2018-07-28T06:51:54.564Z,16.40
2018-07-28T06:54:52.755Z,20.67
2018-07-28T06:57:51.207Z,21.50
2018-07-28T07:00:49.698Z,22.97
2018-07-28T07:03:47.735Z,20.93
2018-07-28T07:06:45.970Z,23.50
2018-07-28T07:09:46.416Z,24.13
2018-07-28T07:12:44.818Z,22.25
2018-07-28T07:15:43.644Z,20.00
2018-07-28T07:18:41.887Z,21.13
2018-07-28T07:21:42.326Z,19.90
2018-07-28T07:24:41.456Z,16.27
2018-07-28T07:27:40.165Z,16.23
2018-07-28T07:30:37.973Z,16.20
2018-07-28T07:33:36.412Z,15.90
2018-07-28T07:36:34.496Z,14.60
2018-07-28T07:39:32.956Z,14.27
2018-07-28T07:42:31.140Z,14.50
2018-07-28T07:45:29.153Z,19.10
2018-07-28T07:48:29.135Z,13.77
2018-07-28T07:51:28.561Z,13.03
2018-07-28T07:54:26.959Z,13.67
2018-07-28T07:57:25.620Z,15.50
2018-07-28T08:00:23.980Z,14.13
2018-07-28T08:03:22.219Z,15.03
2018-07-28T08:06:20.520Z,13.63
2018-07-28T08:09:18.355Z,13.80
2018-07-28T08:12:16.464Z,13.60
2018-07-28T08:15:15.640Z,14.57
2018-07-28T08:18:14.703Z,13.43
2018-07-28T08:21:13.053Z,17.20
2018-07-28T08:24:11.144Z,14.00
2018-07-28T08:27:09.488Z,17.60
2018-07-28T08:30:07.496Z,15.73
2018-07-28T08:33:05.780Z,16.20
2018-07-28T08:36:04.715Z,13.13
2018-07-28T08:39:04.556Z,11.80
2018-07-28T08:42:02.805Z,13.13
2018-07-28T08:45:01.903Z,13.20
2018-07-28T08:48:01.142Z,11.53
2018-07-28T08:50:59.299Z,12.17
2018-07-28T08:53:57.464Z,11.87
2018-07-28T08:56:55.689Z,10.67
2018-07-28T08:59:53.998Z,11.03
2018-07-28T09:02:52.156Z,16.37
2018-07-28T09:05:50.688Z,15.17
2018-07-28T09:08:49.481Z,15.13
2018-07-28T09:11:47.425Z,35.93
2018-07-28T09:14:45.293Z,10.23
2018-07-28T09:17:43.325Z,57.53
2018-07-28T09:20:41.375Z,13.37
2018-07-28T09:23:40.114Z,10.83
2018-07-28T09:26:38.066Z,10.60
2018-07-28T09:29:36.554Z,12.50
2018-07-28T09:32:34.796Z,14.23
2018-07-28T09:35:33.386Z,38.77
2018-07-28T09:38:31.478Z,11.90
2018-07-28T09:41:29.903Z,9.97
2018-07-28T09:44:28.174Z,16.87
2018-07-28T09:47:26.568Z,12.63
2018-07-28T09:50:24.361Z,19.10
2018-07-28T09:53:24.114Z,34.20
2018-07-28T09:56:21.924Z,20.07
2018-07-28T09:59:20.208Z,10.67
2018-07-28T10:02:19.200Z,18.17
2018-07-28T10:05:17.656Z,15.50
2018-07-28T10:08:15.919Z,9.70
2018-07-28T10:11:14.578Z,12.57
2018-07-28T10:14:12.704Z,8.27
2018-07-28T10:17:11.541Z,8.30
2018-07-28T10:20:09.873Z,8.27
2018-07-28T10:23:07.972Z,9.67
2018-07-28T10:26:07.044Z,9.63
2018-07-28T10:29:05.216Z,9.57
2018-07-28T10:32:04.681Z,8.63
2018-07-28T10:35:03.100Z,16.53
2018-07-28T10:38:01.106Z,9.43
2018-07-28T10:41:00.313Z,9.40
2018-07-28T10:43:58.626Z,8.83
2018-07-28T10:46:56.900Z,8.20
2018-07-28T10:49:54.896Z,8.70
2018-07-28T10:52:54.085Z,8.27
2018-07-28T10:55:53.242Z,9.23
2018-07-28T10:58:52.460Z,13.60
2018-07-28T11:01:53.255Z,8.17
2018-07-28T11:04:52.694Z,9.53
2018-07-28T11:07:50.597Z,8.27
2018-07-28T11:10:48.792Z,7.30
2018-07-28T11:13:46.948Z,8.05
2018-07-28T11:16:45.238Z,7.28
2018-07-28T11:19:44.414Z,11.83
2018-07-28T11:22:42.594Z,7.58
2018-07-28T11:25:40.558Z,8.83
2018-07-28T11:28:38.711Z,7.60
2018-07-28T11:32:50.644Z,9.53
2018-07-28T11:37:01.021Z,8.43
2018-07-28T11:40:11.184Z,10.15
2018-07-28T11:43:21.405Z,9.85
2018-07-28T11:46:19.523Z,8.25
2018-07-28T11:49:17.470Z,9.88
2018-07-28T11:52:15.681Z,9.73
2018-07-28T11:55:13.777Z,7.53
2018-07-28T11:58:12.148Z,8.18
2018-07-28T12:01:11.246Z,7.28
2018-07-28T12:04:10.500Z,7.42
2018-07-28T12:07:09.004Z,8.25
2018-07-28T12:10:07.532Z,7.42
2018-07-28T12:13:08.805Z,6.87
2018-07-28T12:16:06.850Z,6.45
2018-07-28T12:19:05.288Z,6.03
2018-07-28T12:22:03.456Z,7.28
2018-07-28T12:25:01.750Z,5.62
2018-07-28T12:27:59.964Z,5.37
2018-07-28T12:30:58.490Z,4.97
2018-07-28T12:33:56.412Z,5.78
2018-07-28T12:36:54.709Z,6.12
2018-07-28T12:39:52.721Z,10.43
2018-07-28T12:42:52.037Z,4.53
2018-07-28T12:45:49.773Z,5.87
2018-07-28T12:48:47.986Z,7.53
2018-07-28T12:51:46.235Z,8.43
2018-07-28T12:54:44.335Z,7.40
2018-07-28T12:57:42.553Z,7.00
2018-07-28T13:00:40.425Z,8.60
2018-07-28T13:03:38.870Z,7.22
2018-07-28T13:06:37.242Z,7.20
2018-07-28T13:09:35.791Z,7.45
2018-07-28T13:12:34.008Z,7.85
2018-07-28T13:15:32.246Z,6.42
2018-07-28T13:18:30.709Z,6.50
2018-07-28T13:21:28.993Z,6.65
2018-07-28T13:24:26.977Z,6.08
2018-07-28T13:27:25.296Z,6.78
2018-07-28T13:30:23.582Z,6.62
2018-07-28T13:33:21.930Z,6.50
2018-07-28T13:36:22.360Z,7.20
2018-07-28T13:39:21.632Z,6.62
2018-07-28T13:42:19.872Z,10.30
2018-07-28T13:45:18.037Z,8.53
2018-07-28T13:48:16.379Z,6.05
2018-07-28T13:51:14.484Z,6.42
2018-07-28T13:54:12.509Z,6.08
2018-07-28T13:57:11.036Z,5.60
2018-07-28T14:00:09.121Z,5.47
2018-07-28T14:03:08.777Z,5.25
2018-07-28T14:06:08.192Z,5.40
2018-07-28T14:09:08.197Z,6.15
2018-07-28T14:12:06.346Z,5.37
2018-07-28T14:15:04.391Z,8.35
2018-07-28T14:18:02.787Z,5.25
2018-07-28T14:21:00.816Z,6.42
2018-07-28T14:24:01.641Z,7.53
2018-07-28T14:27:00.738Z,5.33
2018-07-28T14:29:59.318Z,5.08
2018-07-28T14:32:57.466Z,4.75
2018-07-28T14:35:56.365Z,5.75
2018-07-28T14:38:54.685Z,5.15
2018-07-28T14:42:02.035Z,5.30
2018-07-28T14:45:00.747Z,5.08
2018-07-28T14:47:58.437Z,5.45
2018-07-28T14:50:56.322Z,5.47
2018-07-28T14:53:54.455Z,7.17
2018-07-28T14:56:52.917Z,7.15
2018-07-28T14:59:53.601Z,5.80
2018-07-28T15:02:52.000Z,5.65
2018-07-28T15:05:51.488Z,6.30
2018-07-28T15:08:49.553Z,7.08
2018-07-28T15:11:48.297Z,6.50
2018-07-28T15:14:46.348Z,6.75
2018-07-28T15:17:44.855Z,6.40
2018-07-28T15:20:43.828Z,5.60
2018-07-28T15:23:41.799Z,5.80
2018-07-28T15:26:41.507Z,6.22
2018-07-28T15:29:40.059Z,7.12
2018-07-28T15:32:39.476Z,5.10
2018-07-28T15:35:37.941Z,5.70
2018-07-28T15:38:36.527Z,5.75
2018-07-28T15:41:34.921Z,5.35
2018-07-28T15:44:33.216Z,6.05
2018-07-28T15:47:32.835Z,8.28
2018-07-28T15:50:33.434Z,7.92
2018-07-28T15:53:31.421Z,9.40
2018-07-28T15:56:29.736Z,8.75
2018-07-28T15:59:28.344Z,7.87
2018-07-28T16:02:26.255Z,8.83
2018-07-28T16:05:25.680Z,8.95
2018-07-28T16:08:24.105Z,11.85
2018-07-28T16:11:22.181Z,11.37
2018-07-28T16:14:20.597Z,11.13
2018-07-28T16:17:19.805Z,13.17
2018-07-28T16:20:17.957Z,9.57
2018-07-28T16:23:17.349Z,11.40
2018-07-28T16:26:15.804Z,9.43
2018-07-28T16:29:13.967Z,8.87
2018-07-28T16:32:11.716Z,10.23
2018-07-28T16:35:10.196Z,9.90
2018-07-28T16:38:08.292Z,9.50
2018-07-28T16:41:07.137Z,10.47
2018-07-28T16:44:05.087Z,13.03
2018-07-28T16:47:03.194Z,19.17
2018-07-28T16:50:01.807Z,25.45
2018-07-28T16:53:01.323Z,8.55
2018-07-28T16:55:59.778Z,7.75
2018-07-28T16:59:00.364Z,8.65
2018-07-28T17:01:59.882Z,7.53
2018-07-28T17:04:58.008Z,7.05
2018-07-28T17:07:57.276Z,8.35
2018-07-28T17:10:56.340Z,6.58
2018-07-28T17:13:55.648Z,6.60
2018-07-28T17:16:53.701Z,6.78
2018-07-28T17:19:52.197Z,8.58
2018-07-28T17:22:50.927Z,6.65
2018-07-28T17:25:49.388Z,6.75
2018-07-28T17:28:47.645Z,7.00
2018-07-28T17:31:45.596Z,6.45
2018-07-28T17:34:43.679Z,8.25
2018-07-28T17:37:41.922Z,8.90
2018-07-28T17:40:40.047Z,7.47
2018-07-28T17:43:38.253Z,7.87
2018-07-28T17:46:36.508Z,7.72
2018-07-28T17:49:38.320Z,7.58
2018-07-28T17:52:36.600Z,7.62
2018-07-28T17:55:34.675Z,8.98
2018-07-28T17:58:32.673Z,9.48
2018-07-28T18:01:32.953Z,8.10
2018-07-28T18:04:31.109Z,9.90
2018-07-28T18:07:29.082Z,10.25
2018-07-28T18:10:28.356Z,10.40
2018-07-28T18:13:26.622Z,9.18
2018-07-28T18:16:25.002Z,9.60
2018-07-28T18:19:24.413Z,18.63
2018-07-28T18:22:22.451Z,11.17
2018-07-28T18:25:20.559Z,9.47
2018-07-28T18:28:18.744Z,10.13
2018-07-28T18:31:17.064Z,9.23
2018-07-28T18:34:16.027Z,12.37
2018-07-28T18:37:14.083Z,10.83
2018-07-28T18:40:11.991Z,12.67
2018-07-28T18:43:10.130Z,9.50
2018-07-28T18:46:08.526Z,9.37
2018-07-28T18:49:06.853Z,11.37
2018-07-28T18:52:05.500Z,8.93
2018-07-28T18:55:03.537Z,67.90
2018-07-28T18:58:02.857Z,85.67
2018-07-28T19:01:01.351Z,92.33
2018-07-28T19:03:59.630Z,53.40
2018-07-28T19:06:57.772Z,38.07
2018-07-28T19:09:59.097Z,30.23
2018-07-28T19:13:03.509Z,33.23
2018-07-28T19:16:01.901Z,26.00
2018-07-28T19:19:06.676Z,28.80
2018-07-28T19:22:05.061Z,19.63
2018-07-28T19:25:03.324Z,19.00
2018-07-28T19:28:07.583Z,25.27
2018-07-28T19:31:07.087Z,17.37
2018-07-28T19:34:05.864Z,21.60
2018-07-28T19:37:10.477Z,15.40
2018-07-28T19:40:08.956Z,15.03
2018-07-28T19:43:07.308Z,15.87
2018-07-28T19:46:05.789Z,16.13
2018-07-28T19:49:04.801Z,14.40
2018-07-28T19:52:03.448Z,15.07
2018-07-28T19:55:01.774Z,19.40
2018-07-28T19:57:59.915Z,25.53
2018-07-28T20:00:58.412Z,31.00
2018-07-28T20:03:57.873Z,27.00
2018-07-28T20:06:55.776Z,17.67
2018-07-28T20:09:53.876Z,16.20
2018-07-28T20:12:52.388Z,22.80
2018-07-28T20:15:50.428Z,22.80
2018-07-28T20:18:49.193Z,22.20
2018-07-28T20:21:48.325Z,31.43
2018-07-28T20:24:46.604Z,24.20
2018-07-28T20:27:44.885Z,31.17
2018-07-28T20:30:44.073Z,27.73
2018-07-28T20:33:42.605Z,24.27
2018-07-28T20:36:45.325Z,31.50
2018-07-28T20:39:43.588Z,33.90
2018-07-28T20:42:41.979Z,33.30
2018-07-28T20:45:41.802Z,33.10
2018-07-28T20:48:39.844Z,33.90
2018-07-28T20:51:37.995Z,32.30
2018-07-28T20:54:36.085Z,33.23
2018-07-28T20:57:35.456Z,38.23
2018-07-28T21:00:35.030Z,39.87
2018-07-28T21:03:33.394Z,35.00
2018-07-28T21:06:32.983Z,29.67
2018-07-28T21:09:31.664Z,28.80
2018-07-28T21:12:29.517Z,30.37
2018-07-28T21:15:27.773Z,28.67
2018-07-28T21:18:26.576Z,30.70
2018-07-28T21:21:25.046Z,30.13
2018-07-28T21:24:24.297Z,26.60
2018-07-28T21:27:22.784Z,28.17
2018-07-28T21:30:20.881Z,29.70
2018-07-28T21:33:21.803Z,33.07
2018-07-28T21:36:19.880Z,31.43
2018-07-28T21:39:19.317Z,29.13
2018-07-28T21:42:17.812Z,29.00
2018-07-28T21:45:16.233Z,27.00
2018-07-28T21:48:14.127Z,26.83
2018-07-28T21:51:13.536Z,27.10
2018-07-28T21:54:11.536Z,27.47
2018-07-28T21:57:09.955Z,30.13
2018-07-28T22:00:08.796Z,29.70
2018-07-28T22:03:07.509Z,30.30
2018-07-28T22:06:05.228Z,29.67
2018-07-28T22:09:03.197Z,29.90
2018-07-28T22:12:00.809Z,30.37
2018-07-28T22:14:59.424Z,29.73
2018-07-28T22:17:58.164Z,25.80
2018-07-28T22:20:57.981Z,26.90
2018-07-28T22:23:57.042Z,25.43
2018-07-28T22:26:55.467Z,31.00
2018-07-28T22:29:53.680Z,34.17
2018-07-28T22:32:51.989Z,33.77
2018-07-28T22:35:51.290Z,32.57
2018-07-28T22:38:49.441Z,35.87
2018-07-28T22:41:48.778Z,29.13
2018-07-28T22:44:47.000Z,29.17
2018-07-28T22:47:45.180Z,29.57
2018-07-28T22:50:43.490Z,32.50
2018-07-28T22:53:41.882Z,32.93
2018-07-28T22:56:40.131Z,30.90
2018-07-28T22:59:38.203Z,29.63
2018-07-28T23:02:37.704Z,28.10
2018-07-28T23:05:35.957Z,27.13
2018-07-28T23:08:34.540Z,29.33
2018-07-28T23:11:33.105Z,29.27
2018-07-28T23:14:31.803Z,23.50
2018-07-28T23:17:30.042Z,26.77
2018-07-28T23:20:29.444Z,28.13
2018-07-28T23:23:28.824Z,25.80
2018-07-28T23:26:27.001Z,29.00
2018-07-28T23:29:25.648Z,27.57
2018-07-28T23:32:25.022Z,25.00
2018-07-28T23:35:23.503Z,24.27
2018-07-28T23:38:22.813Z,25.07
2018-07-28T23:41:20.968Z,26.47
2018-07-28T23:44:19.457Z,27.37
2018-07-28T23:47:17.996Z,27.10
2018-07-28T23:50:16.602Z,28.77
2018-07-28T23:53:15.360Z,25.90
2018-07-28T23:56:13.912Z,27.40
2018-07-28T23:59:13.432Z,24.33
